sensor_id;sensor_type;location;lat;lon;timestamp;P1;durP1;ratioP1;P2;durP2;ratioP2
27921;SDS011;15261;50.356;10.340;2022-10-30T00:01:16;18.95;;;12.18;;
27921;SDS011;15261;50.356;10.340;2022-10-30T00:03:41;20.35;;;13.82;;
27921;SDS011;15261;50.356;10.340;2022-10-30T00:06:07;20.08;;;13.85;;
27921;SDS011;15261;50.356;10.340;2022-10-30T00:08:32;22.35;;;14.20;;
27921;SDS011;15261;50.356;10.340;2022-10-30T00:11:08;19.15;;;13.75;;
27921;SDS011;15261;50.356;10.340;2022-10-30T00:13:37;21.25;;;13.45;;
27921;SDS011;15261;50.356;10.340;2022-10-30T00:16:04;18.60;;;13.55;;
27921;SDS011;15261;50.356;10.340;2022-10-30T00:18:33;15.95;;;13.45;;
27921;SDS011;15261;50.356;10.340;2022-10-30T00:21:06;18.85;;;14.02;;
27921;SDS011;15261;50.356;10.340;2022-10-30T00:23:36;22.55;;;14.38;;
27921;SDS011;15261;50.356;10.340;2022-10-30T00:26:03;19.83;;;14.38;;
27921;SDS011;15261;50.356;10.340;2022-10-30T00:31:52;27.70;;;14.38;;
27921;SDS011;15261;50.356;10.340;2022-10-30T00:34:18;16.75;;;12.82;;
27921;SDS011;15261;50.356;10.340;2022-10-30T00:36:43;17.88;;;12.98;;
27921;SDS011;15261;50.356;10.340;2022-10-30T00:39:09;15.50;;;12.70;;
27921;SDS011;15261;50.356;10.340;2022-10-30T00:41:34;19.00;;;12.25;;
27921;SDS011;15261;50.356;10.340;2022-10-30T00:44:29;15.18;;;12.07;;
27921;SDS011;15261;50.356;10.340;2022-10-30T00:47:05;17.35;;;12.70;;
27921;SDS011;15261;50.356;10.340;2022-10-30T00:49:37;18.40;;;13.27;;
27921;SDS011;15261;50.356;10.340;2022-10-30T00:52:11;22.77;;;13.40;;
27921;SDS011;15261;50.356;10.340;2022-10-30T00:54:37;21.95;;;12.77;;
27921;SDS011;15261;50.356;10.340;2022-10-30T00:57:03;19.45;;;12.80;;
27921;SDS011;15261;50.356;10.340;2022-10-30T00:59:31;20.00;;;12.23;;
27921;SDS011;15261;50.356;10.340;2022-10-30T01:01:59;13.63;;;11.50;;
27921;SDS011;15261;50.356;10.340;2022-10-30T01:04:26;17.05;;;12.00;;
27921;SDS011;15261;50.356;10.340;2022-10-30T01:06:53;20.63;;;13.13;;
27921;SDS011;15261;50.356;10.340;2022-10-30T01:09:19;17.38;;;12.38;;
27921;SDS011;15261;50.356;10.340;2022-10-30T01:11:45;16.15;;;12.45;;
27921;SDS011;15261;50.356;10.340;2022-10-30T01:14:11;14.43;;;12.20;;
27921;SDS011;15261;50.356;10.340;2022-10-30T01:16:43;19.00;;;12.48;;
27921;SDS011;15261;50.356;10.340;2022-10-30T01:30:57;21.25;;;12.90;;
27921;SDS011;15261;50.356;10.340;2022-10-30T01:36:45;17.10;;;12.55;;
27921;SDS011;15261;50.356;10.340;2022-10-30T01:39:20;17.05;;;11.45;;
27921;SDS011;15261;50.356;10.340;2022-10-30T01:41:48;17.77;;;12.38;;
27921;SDS011;15261;50.356;10.340;2022-10-30T01:44:16;17.52;;;13.00;;
27921;SDS011;15261;50.356;10.340;2022-10-30T01:55:42;17.83;;;11.90;;
27921;SDS011;15261;50.356;10.340;2022-10-30T01:58:19;18.65;;;12.90;;
27921;SDS011;15261;50.356;10.340;2022-10-30T02:00:54;15.07;;;12.13;;
27921;SDS011;15261;50.356;10.340;2022-10-30T02:03:22;16.50;;;12.60;;
27921;SDS011;15261;50.356;10.340;2022-10-30T02:05:50;17.75;;;13.32;;
27921;SDS011;15261;50.356;10.340;2022-10-30T02:08:16;21.55;;;12.48;;
27921;SDS011;15261;50.356;10.340;2022-10-30T02:10:43;17.60;;;12.20;;
27921;SDS011;15261;50.356;10.340;2022-10-30T02:13:11;19.67;;;12.27;;
27921;SDS011;15261;50.356;10.340;2022-10-30T02:15:36;16.02;;;12.57;;
27921;SDS011;15261;50.356;10.340;2022-10-30T02:18:02;17.00;;;13.02;;
27921;SDS011;15261;50.356;10.340;2022-10-30T02:20:28;15.70;;;11.35;;
27921;SDS011;15261;50.356;10.340;2022-10-30T02:22:54;17.65;;;12.48;;
27921;SDS011;15261;50.356;10.340;2022-10-30T02:25:20;18.85;;;12.60;;
27921;SDS011;15261;50.356;10.340;2022-10-30T02:27:46;19.08;;;11.75;;
27921;SDS011;15261;50.356;10.340;2022-10-30T02:30:12;16.67;;;11.70;;
27921;SDS011;15261;50.356;10.340;2022-10-30T02:32:38;16.85;;;11.43;;
27921;SDS011;15261;50.356;10.340;2022-10-30T02:35:04;15.77;;;11.13;;
27921;SDS011;15261;50.356;10.340;2022-10-30T02:37:30;15.98;;;10.77;;
27921;SDS011;15261;50.356;10.340;2022-10-30T02:39:56;15.73;;;10.90;;
27921;SDS011;15261;50.356;10.340;2022-10-30T02:42:22;17.10;;;10.90;;
27921;SDS011;15261;50.356;10.340;2022-10-30T02:44:48;17.50;;;10.85;;
27921;SDS011;15261;50.356;10.340;2022-10-30T02:47:14;15.38;;;10.75;;
27921;SDS011;15261;50.356;10.340;2022-10-30T02:49:39;14.32;;;9.85;;
27921;SDS011;15261;50.356;10.340;2022-10-30T02:52:05;18.50;;;10.27;;
27921;SDS011;15261;50.356;10.340;2022-10-30T02:54:32;18.45;;;11.18;;
27921;SDS011;15261;50.356;10.340;2022-10-30T02:56:58;17.10;;;11.02;;
27921;SDS011;15261;50.356;10.340;2022-10-30T02:59:23;14.23;;;10.70;;
27921;SDS011;15261;50.356;10.340;2022-10-30T03:01:49;16.70;;;10.50;;
27921;SDS011;15261;50.356;10.340;2022-10-30T03:04:14;20.42;;;11.02;;
27921;SDS011;15261;50.356;10.340;2022-10-30T03:06:40;16.48;;;10.25;;
27921;SDS011;15261;50.356;10.340;2022-10-30T03:09:06;14.80;;;10.27;;
27921;SDS011;15261;50.356;10.340;2022-10-30T03:11:32;16.15;;;11.10;;
27921;SDS011;15261;50.356;10.340;2022-10-30T03:13:58;15.48;;;10.48;;
27921;SDS011;15261;50.356;10.340;2022-10-30T03:16:24;12.90;;;10.85;;
27921;SDS011;15261;50.356;10.340;2022-10-30T03:18:53;14.40;;;10.70;;
27921;SDS011;15261;50.356;10.340;2022-10-30T03:21:20;15.55;;;10.55;;
27921;SDS011;15261;50.356;10.340;2022-10-30T03:23:48;13.60;;;10.40;;
27921;SDS011;15261;50.356;10.340;2022-10-30T03:26:17;16.40;;;11.05;;
27921;SDS011;15261;50.356;10.340;2022-10-30T03:28:43;11.20;;;9.65;;
27921;SDS011;15261;50.356;10.340;2022-10-30T03:31:10;13.50;;;10.68;;
27921;SDS011;15261;50.356;10.340;2022-10-30T03:33:37;13.38;;;11.25;;
27921;SDS011;15261;50.356;10.340;2022-10-30T03:36:03;17.75;;;10.75;;
27921;SDS011;15261;50.356;10.340;2022-10-30T03:38:30;17.27;;;11.23;;
27921;SDS011;15261;50.356;10.340;2022-10-30T03:40:56;19.13;;;13.73;;
27921;SDS011;15261;50.356;10.340;2022-10-30T03:43:22;14.80;;;12.35;;
27921;SDS011;15261;50.356;10.340;2022-10-30T03:45:48;16.92;;;11.50;;
27921;SDS011;15261;50.356;10.340;2022-10-30T03:48:16;18.27;;;11.55;;
27921;SDS011;15261;50.356;10.340;2022-10-30T03:50:43;12.63;;;10.80;;
27921;SDS011;15261;50.356;10.340;2022-10-30T03:53:09;17.75;;;11.75;;
27921;SDS011;15261;50.356;10.340;2022-10-30T03:55:36;16.83;;;11.68;;
27921;SDS011;15261;50.356;10.340;2022-10-30T03:58:01;14.35;;;10.77;;
27921;SDS011;15261;50.356;10.340;2022-10-30T04:00:27;16.25;;;11.20;;
27921;SDS011;15261;50.356;10.340;2022-10-30T04:02:52;13.40;;;10.75;;
27921;SDS011;15261;50.356;10.340;2022-10-30T04:05:19;18.08;;;10.57;;
27921;SDS011;15261;50.356;10.340;2022-10-30T04:07:46;15.45;;;11.40;;
27921;SDS011;15261;50.356;10.340;2022-10-30T04:10:13;13.45;;;10.20;;
27921;SDS011;15261;50.356;10.340;2022-10-30T04:12:39;18.13;;;11.13;;
27921;SDS011;15261;50.356;10.340;2022-10-30T04:15:05;19.00;;;10.88;;
27921;SDS011;15261;50.356;10.340;2022-10-30T04:17:32;15.43;;;11.10;;
27921;SDS011;15261;50.356;10.340;2022-10-30T04:19:58;13.27;;;10.77;;
27921;SDS011;15261;50.356;10.340;2022-10-30T04:22:24;11.88;;;10.68;;
27921;SDS011;15261;50.356;10.340;2022-10-30T04:24:49;14.15;;;10.80;;
27921;SDS011;15261;50.356;10.340;2022-10-30T04:27:15;16.67;;;10.80;;
27921;SDS011;15261;50.356;10.340;2022-10-30T04:29:41;15.65;;;9.95;;
27921;SDS011;15261;50.356;10.340;2022-10-30T04:32:07;18.30;;;11.48;;
27921;SDS011;15261;50.356;10.340;2022-10-30T04:34:34;12.60;;;10.73;;
27921;SDS011;15261;50.356;10.340;2022-10-30T04:36:59;14.95;;;10.75;;
27921;SDS011;15261;50.356;10.340;2022-10-30T04:39:25;18.17;;;11.55;;
27921;SDS011;15261;50.356;10.340;2022-10-30T04:41:50;18.15;;;10.20;;
27921;SDS011;15261;50.356;10.340;2022-10-30T04:44:16;16.83;;;11.35;;
27921;SDS011;15261;50.356;10.340;2022-10-30T04:46:41;15.55;;;11.43;;
27921;SDS011;15261;50.356;10.340;2022-10-30T04:49:07;15.05;;;10.90;;
27921;SDS011;15261;50.356;10.340;2022-10-30T04:51:33;19.35;;;13.68;;
27921;SDS011;15261;50.356;10.340;2022-10-30T04:53:58;16.67;;;13.02;;
27921;SDS011;15261;50.356;10.340;2022-10-30T04:56:24;18.30;;;13.30;;
27921;SDS011;15261;50.356;10.340;2022-10-30T04:58:49;16.20;;;11.82;;
27921;SDS011;15261;50.356;10.340;2022-10-30T05:01:16;12.60;;;10.98;;
27921;SDS011;15261;50.356;10.340;2022-10-30T05:03:41;13.90;;;11.30;;
27921;SDS011;15261;50.356;10.340;2022-10-30T05:06:23;17.40;;;12.00;;
27921;SDS011;15261;50.356;10.340;2022-10-30T05:08:51;19.95;;;10.70;;
27921;SDS011;15261;50.356;10.340;2022-10-30T05:11:17;14.18;;;10.75;;
27921;SDS011;15261;50.356;10.340;2022-10-30T05:13:43;19.20;;;11.18;;
27921;SDS011;15261;50.356;10.340;2022-10-30T05:16:08;12.63;;;10.57;;
27921;SDS011;15261;50.356;10.340;2022-10-30T05:21:51;14.05;;;11.38;;
27921;SDS011;15261;50.356;10.340;2022-10-30T05:24:16;15.40;;;12.13;;
27921;SDS011;15261;50.356;10.340;2022-10-30T05:26:42;14.13;;;12.60;;
27921;SDS011;15261;50.356;10.340;2022-10-30T05:29:08;20.50;;;13.43;;
27921;SDS011;15261;50.356;10.340;2022-10-30T05:31:33;15.38;;;12.73;;
27921;SDS011;15261;50.356;10.340;2022-10-30T05:33:59;16.88;;;12.40;;
27921;SDS011;15261;50.356;10.340;2022-10-30T05:36:24;19.65;;;12.73;;
27921;SDS011;15261;50.356;10.340;2022-10-30T05:38:50;20.35;;;13.10;;
27921;SDS011;15261;50.356;10.340;2022-10-30T05:41:16;13.40;;;12.02;;
27921;SDS011;15261;50.356;10.340;2022-10-30T05:43:41;13.98;;;12.48;;
27921;SDS011;15261;50.356;10.340;2022-10-30T05:46:07;20.95;;;13.10;;
27921;SDS011;15261;50.356;10.340;2022-10-30T05:48:32;16.40;;;12.95;;
27921;SDS011;15261;50.356;10.340;2022-10-30T05:50:58;18.13;;;12.35;;
27921;SDS011;15261;50.356;10.340;2022-10-30T05:53:24;17.20;;;12.90;;
27921;SDS011;15261;50.356;10.340;2022-10-30T05:55:49;152.38;;;16.83;;
27921;SDS011;15261;50.356;10.340;2022-10-30T05:58:15;27.95;;;13.32;;
27921;SDS011;15261;50.356;10.340;2022-10-30T06:00:41;70.95;;;49.10;;
27921;SDS011;15261;50.356;10.340;2022-10-30T06:03:11;48.60;;;34.90;;
27921;SDS011;15261;50.356;10.340;2022-10-30T06:05:37;38.25;;;30.77;;
27921;SDS011;15261;50.356;10.340;2022-10-30T06:08:04;24.05;;;16.05;;
27921;SDS011;15261;50.356;10.340;2022-10-30T06:10:32;20.08;;;14.07;;
27921;SDS011;15261;50.356;10.340;2022-10-30T06:13:02;19.33;;;14.60;;
27921;SDS011;15261;50.356;10.340;2022-10-30T06:15:29;18.10;;;13.65;;
27921;SDS011;15261;50.356;10.340;2022-10-30T06:17:55;16.63;;;13.50;;
27921;SDS011;15261;50.356;10.340;2022-10-30T06:20:21;17.80;;;12.82;;
27921;SDS011;15261;50.356;10.340;2022-10-30T06:22:58;16.40;;;12.38;;
27921;SDS011;15261;50.356;10.340;2022-10-30T06:25:25;14.20;;;11.57;;
27921;SDS011;15261;50.356;10.340;2022-10-30T06:27:51;20.48;;;12.30;;
27921;SDS011;15261;50.356;10.340;2022-10-30T06:30:17;14.07;;;11.80;;
27921;SDS011;15261;50.356;10.340;2022-10-30T06:32:44;25.65;;;10.40;;
27921;SDS011;15261;50.356;10.340;2022-10-30T06:35:09;11.68;;;10.13;;
27921;SDS011;15261;50.356;10.340;2022-10-30T06:37:35;17.17;;;11.20;;
27921;SDS011;15261;50.356;10.340;2022-10-30T06:40:03;18.45;;;11.07;;
27921;SDS011;15261;50.356;10.340;2022-10-30T06:42:31;73.50;;;13.25;;
27921;SDS011;15261;50.356;10.340;2022-10-30T06:44:56;114.72;;;53.35;;
27921;SDS011;15261;50.356;10.340;2022-10-30T06:47:22;110.45;;;46.90;;
27921;SDS011;15261;50.356;10.340;2022-10-30T06:49:47;83.20;;;26.30;;
27921;SDS011;15261;50.356;10.340;2022-10-30T06:52:13;93.22;;;23.52;;
27921;SDS011;15261;50.356;10.340;2022-10-30T06:54:38;69.53;;;31.08;;
27921;SDS011;15261;50.356;10.340;2022-10-30T06:57:06;154.55;;;37.67;;
27921;SDS011;15261;50.356;10.340;2022-10-30T06:59:32;78.65;;;21.50;;
27921;SDS011;15261;50.356;10.340;2022-10-30T07:01:57;114.88;;;20.33;;
27921;SDS011;15261;50.356;10.340;2022-10-30T07:04:23;86.15;;;16.38;;
27921;SDS011;15261;50.356;10.340;2022-10-30T07:06:48;102.00;;;18.20;;
27921;SDS011;15261;50.356;10.340;2022-10-30T07:09:14;93.15;;;21.10;;
27921;SDS011;15261;50.356;10.340;2022-10-30T07:11:39;137.75;;;33.42;;
27921;SDS011;15261;50.356;10.340;2022-10-30T07:14:09;147.10;;;32.13;;
27921;SDS011;15261;50.356;10.340;2022-10-30T07:16:35;109.00;;;42.60;;
27921;SDS011;15261;50.356;10.340;2022-10-30T07:19:01;58.25;;;25.83;;
27921;SDS011;15261;50.356;10.340;2022-10-30T07:21:27;53.95;;;17.20;;
27921;SDS011;15261;50.356;10.340;2022-10-30T07:23:52;68.65;;;16.88;;
27921;SDS011;15261;50.356;10.340;2022-10-30T07:26:18;53.67;;;16.35;;
27921;SDS011;15261;50.356;10.340;2022-10-30T07:28:43;52.00;;;12.98;;
27921;SDS011;15261;50.356;10.340;2022-10-30T07:31:09;94.95;;;15.25;;
27921;SDS011;15261;50.356;10.340;2022-10-30T07:33:34;55.72;;;13.50;;
27921;SDS011;15261;50.356;10.340;2022-10-30T07:36:00;41.53;;;12.00;;
27921;SDS011;15261;50.356;10.340;2022-10-30T07:38:27;18.88;;;11.75;;
27921;SDS011;15261;50.356;10.340;2022-10-30T07:40:52;43.55;;;11.43;;
27921;SDS011;15261;50.356;10.340;2022-10-30T07:43:18;11.75;;;9.80;;
27921;SDS011;15261;50.356;10.340;2022-10-30T07:45:44;15.32;;;10.30;;
27921;SDS011;15261;50.356;10.340;2022-10-30T07:48:10;10.73;;;9.65;;
27921;SDS011;15261;50.356;10.340;2022-10-30T07:53:31;11.75;;;10.65;;
27921;SDS011;15261;50.356;10.340;2022-10-30T07:58:57;13.02;;;11.65;;
27921;SDS011;15261;50.356;10.340;2022-10-30T08:04:32;13.80;;;12.50;;
27921;SDS011;15261;50.356;10.340;2022-10-30T08:09:55;16.25;;;14.30;;
27921;SDS011;15261;50.356;10.340;2022-10-30T08:12:20;12.88;;;11.57;;
27921;SDS011;15261;50.356;10.340;2022-10-30T08:14:46;10.50;;;9.52;;
27921;SDS011;15261;50.356;10.340;2022-10-30T08:17:12;16.60;;;9.15;;
27921;SDS011;15261;50.356;10.340;2022-10-30T08:22:59;12.40;;;8.95;;
27921;SDS011;15261;50.356;10.340;2022-10-30T08:25:29;10.25;;;9.30;;
27921;SDS011;15261;50.356;10.340;2022-10-30T08:30:31;9.18;;;7.88;;
27921;SDS011;15261;50.356;10.340;2022-10-30T08:32:59;8.45;;;7.53;;
27921;SDS011;15261;50.356;10.340;2022-10-30T08:35:26;7.75;;;7.15;;
27921;SDS011;15261;50.356;10.340;2022-10-30T08:37:56;7.82;;;7.20;;
27921;SDS011;15261;50.356;10.340;2022-10-30T08:40:22;7.18;;;6.13;;
27921;SDS011;15261;50.356;10.340;2022-10-30T08:42:49;8.07;;;7.47;;
27921;SDS011;15261;50.356;10.340;2022-10-30T08:45:15;9.05;;;8.35;;
27921;SDS011;15261;50.356;10.340;2022-10-30T08:47:41;8.75;;;7.57;;
27921;SDS011;15261;50.356;10.340;2022-10-30T08:52:45;6.90;;;6.40;;
27921;SDS011;15261;50.356;10.340;2022-10-30T08:55:11;6.72;;;6.20;;
27921;SDS011;15261;50.356;10.340;2022-10-30T08:57:36;7.35;;;6.75;;
27921;SDS011;15261;50.356;10.340;2022-10-30T09:00:05;7.18;;;6.68;;
27921;SDS011;15261;50.356;10.340;2022-10-30T09:02:32;7.80;;;7.10;;
27921;SDS011;15261;50.356;10.340;2022-10-30T09:04:59;7.25;;;6.65;;
27921;SDS011;15261;50.356;10.340;2022-10-30T09:07:25;6.60;;;6.10;;
27921;SDS011;15261;50.356;10.340;2022-10-30T09:09:50;7.50;;;6.75;;
27921;SDS011;15261;50.356;10.340;2022-10-30T09:15:38;7.40;;;6.90;;
27921;SDS011;15261;50.356;10.340;2022-10-30T09:18:03;7.57;;;6.88;;
27921;SDS011;15261;50.356;10.340;2022-10-30T09:20:30;7.85;;;7.05;;
27921;SDS011;15261;50.356;10.340;2022-10-30T09:22:55;7.28;;;6.68;;
27921;SDS011;15261;50.356;10.340;2022-10-30T09:25:21;8.68;;;7.10;;
27921;SDS011;15261;50.356;10.340;2022-10-30T09:30:35;11.95;;;8.25;;
27921;SDS011;15261;50.356;10.340;2022-10-30T09:33:03;12.43;;;9.70;;
27921;SDS011;15261;50.356;10.340;2022-10-30T09:35:29;12.57;;;10.35;;
27921;SDS011;15261;50.356;10.340;2022-10-30T09:41:05;13.95;;;12.20;;
27921;SDS011;15261;50.356;10.340;2022-10-30T09:56:48;8.70;;;7.13;;
27921;SDS011;15261;50.356;10.340;2022-10-30T10:05:05;10.95;;;7.43;;
27921;SDS011;15261;50.356;10.340;2022-10-30T10:10:52;10.45;;;7.25;;
27921;SDS011;15261;50.356;10.340;2022-10-30T10:13:43;12.68;;;7.53;;
27921;SDS011;15261;50.356;10.340;2022-10-30T10:16:17;9.77;;;7.30;;
27921;SDS011;15261;50.356;10.340;2022-10-30T10:24:43;12.23;;;7.40;;
27921;SDS011;15261;50.356;10.340;2022-10-30T10:38:52;9.95;;;7.70;;
27921;SDS011;15261;50.356;10.340;2022-10-30T10:50:24;16.00;;;8.98;;
27921;SDS011;15261;50.356;10.340;2022-10-30T10:53:29;16.10;;;9.10;;
27921;SDS011;15261;50.356;10.340;2022-10-30T10:55:59;14.50;;;8.98;;
27921;SDS011;15261;50.356;10.340;2022-10-30T11:01:39;19.95;;;9.32;;
27921;SDS011;15261;50.356;10.340;2022-10-30T11:04:23;12.20;;;8.82;;
27921;SDS011;15261;50.356;10.340;2022-10-30T11:10:12;13.20;;;8.15;;
27921;SDS011;15261;50.356;10.340;2022-10-30T11:12:40;17.25;;;8.20;;
27921;SDS011;15261;50.356;10.340;2022-10-30T11:15:20;11.98;;;7.82;;
27921;SDS011;15261;50.356;10.340;2022-10-30T11:20:33;17.05;;;8.25;;
27921;SDS011;15261;50.356;10.340;2022-10-30T11:23:35;14.10;;;7.75;;
27921;SDS011;15261;50.356;10.340;2022-10-30T11:31:29;8.80;;;7.13;;
27921;SDS011;15261;50.356;10.340;2022-10-30T11:36:57;13.90;;;7.35;;
27921;SDS011;15261;50.356;10.340;2022-10-30T11:39:24;12.15;;;7.43;;
27921;SDS011;15261;50.356;10.340;2022-10-30T11:42:11;14.82;;;8.05;;
27921;SDS011;15261;50.356;10.340;2022-10-30T11:47:09;13.45;;;7.45;;
27921;SDS011;15261;50.356;10.340;2022-10-30T11:49:41;15.15;;;8.00;;
27921;SDS011;15261;50.356;10.340;2022-10-30T11:52:11;12.88;;;7.75;;
27921;SDS011;15261;50.356;10.340;2022-10-30T11:54:40;16.58;;;8.10;;
27921;SDS011;15261;50.356;10.340;2022-10-30T11:57:19;15.20;;;7.80;;
27921;SDS011;15261;50.356;10.340;2022-10-30T11:59:47;14.52;;;8.07;;
27921;SDS011;15261;50.356;10.340;2022-10-30T12:02:25;10.73;;;7.68;;
27921;SDS011;15261;50.356;10.340;2022-10-30T12:16:51;11.60;;;7.80;;
27921;SDS011;15261;50.356;10.340;2022-10-30T12:19:21;14.07;;;8.18;;
27921;SDS011;15261;50.356;10.340;2022-10-30T12:21:49;11.93;;;8.48;;
27921;SDS011;15261;50.356;10.340;2022-10-30T12:24:37;12.98;;;7.70;;
27921;SDS011;15261;50.356;10.340;2022-10-30T12:27:10;15.65;;;7.68;;
27921;SDS011;15261;50.356;10.340;2022-10-30T12:32:21;12.82;;;6.88;;
27921;SDS011;15261;50.356;10.340;2022-10-30T12:34:57;13.80;;;7.05;;
27921;SDS011;15261;50.356;10.340;2022-10-30T12:37:28;12.68;;;6.80;;
27921;SDS011;15261;50.356;10.340;2022-10-30T12:40:01;13.98;;;7.32;;
27921;SDS011;15261;50.356;10.340;2022-10-30T12:49:35;20.08;;;7.65;;
27921;SDS011;15261;50.356;10.340;2022-10-30T12:58:32;14.75;;;6.40;;
27921;SDS011;15261;50.356;10.340;2022-10-30T13:06:50;9.15;;;6.13;;
27921;SDS011;15261;50.356;10.340;2022-10-30T13:12:31;11.00;;;6.25;;
27921;SDS011;15261;50.356;10.340;2022-10-30T13:21:48;15.15;;;6.20;;
27921;SDS011;15261;50.356;10.340;2022-10-30T13:37:37;13.57;;;6.10;;
27921;SDS011;15261;50.356;10.340;2022-10-30T13:52:30;12.88;;;5.78;;
27921;SDS011;15261;50.356;10.340;2022-10-30T13:55:00;12.90;;;6.43;;
27921;SDS011;15261;50.356;10.340;2022-10-30T14:01:01;12.68;;;5.90;;
27921;SDS011;15261;50.356;10.340;2022-10-30T14:11:31;13.82;;;6.18;;
27921;SDS011;15261;50.356;10.340;2022-10-30T14:14:01;18.52;;;5.72;;
27921;SDS011;15261;50.356;10.340;2022-10-30T14:22:30;13.52;;;6.05;;
27921;SDS011;15261;50.356;10.340;2022-10-30T14:25:00;9.63;;;5.50;;
27921;SDS011;15261;50.356;10.340;2022-10-30T14:27:27;16.33;;;5.70;;
27921;SDS011;15261;50.356;10.340;2022-10-30T14:29:54;15.05;;;6.28;;
27921;SDS011;15261;50.356;10.340;2022-10-30T14:37:15;8.23;;;5.60;;
27921;SDS011;15261;50.356;10.340;2022-10-30T14:43:13;10.02;;;6.30;;
27921;SDS011;15261;50.356;10.340;2022-10-30T14:49:09;12.98;;;7.63;;
27921;SDS011;15261;50.356;10.340;2022-10-30T14:58:31;15.77;;;7.40;;
27921;SDS011;15261;50.356;10.340;2022-10-30T15:07:31;14.65;;;8.05;;
27921;SDS011;15261;50.356;10.340;2022-10-30T15:13:38;12.00;;;8.00;;
27921;SDS011;15261;50.356;10.340;2022-10-30T15:16:13;10.88;;;7.72;;
27921;SDS011;15261;50.356;10.340;2022-10-30T15:18:59;14.35;;;8.18;;
27921;SDS011;15261;50.356;10.340;2022-10-30T15:21:28;14.88;;;8.65;;
27921;SDS011;15261;50.356;10.340;2022-10-30T15:23:58;12.77;;;8.10;;
27921;SDS011;15261;50.356;10.340;2022-10-30T15:26:27;16.08;;;8.70;;
27921;SDS011;15261;50.356;10.340;2022-10-30T15:29:04;19.67;;;8.70;;
27921;SDS011;15261;50.356;10.340;2022-10-30T15:31:31;16.55;;;8.77;;
27921;SDS011;15261;50.356;10.340;2022-10-30T15:37:19;16.48;;;9.00;;
27921;SDS011;15261;50.356;10.340;2022-10-30T15:39:44;18.25;;;9.10;;
27921;SDS011;15261;50.356;10.340;2022-10-30T15:42:10;13.65;;;8.73;;
27921;SDS011;15261;50.356;10.340;2022-10-30T15:44:36;28.60;;;15.90;;
27921;SDS011;15261;50.356;10.340;2022-10-30T15:47:09;21.58;;;16.45;;
27921;SDS011;15261;50.356;10.340;2022-10-30T15:53:32;14.82;;;10.40;;
27921;SDS011;15261;50.356;10.340;2022-10-30T15:59:26;17.75;;;9.82;;
27921;SDS011;15261;50.356;10.340;2022-10-30T16:01:56;15.93;;;10.50;;
27921;SDS011;15261;50.356;10.340;2022-10-30T16:04:34;18.85;;;11.48;;
27921;SDS011;15261;50.356;10.340;2022-10-30T16:10:23;21.15;;;9.32;;
27921;SDS011;15261;50.356;10.340;2022-10-30T16:15:51;20.13;;;9.60;;
27921;SDS011;15261;50.356;10.340;2022-10-30T16:18:24;18.05;;;9.30;;
27921;SDS011;15261;50.356;10.340;2022-10-30T16:20:53;15.93;;;10.07;;
27921;SDS011;15261;50.356;10.340;2022-10-30T16:30:02;15.85;;;9.23;;
27921;SDS011;15261;50.356;10.340;2022-10-30T16:32:29;17.98;;;10.05;;
27921;SDS011;15261;50.356;10.340;2022-10-30T16:34:56;19.48;;;9.57;;
27921;SDS011;15261;50.356;10.340;2022-10-30T16:40:22;18.63;;;9.98;;
27921;SDS011;15261;50.356;10.340;2022-10-30T16:48:36;21.63;;;11.57;;
27921;SDS011;15261;50.356;10.340;2022-10-30T16:54:31;15.02;;;9.40;;
27921;SDS011;15261;50.356;10.340;2022-10-30T16:57:03;18.15;;;9.60;;
27921;SDS011;15261;50.356;10.340;2022-10-30T16:59:48;19.73;;;11.63;;
27921;SDS011;15261;50.356;10.340;2022-10-30T17:05:36;27.70;;;13.57;;
27921;SDS011;15261;50.356;10.340;2022-10-30T17:08:05;19.83;;;12.02;;
27921;SDS011;15261;50.356;10.340;2022-10-30T17:13:40;12.70;;;9.43;;
27921;SDS011;15261;50.356;10.340;2022-10-30T17:22:11;22.17;;;15.15;;
27921;SDS011;15261;50.356;10.340;2022-10-30T17:28:03;18.88;;;13.85;;
27921;SDS011;15261;50.356;10.340;2022-10-30T17:36:41;28.00;;;12.38;;
27921;SDS011;15261;50.356;10.340;2022-10-30T17:48:21;21.67;;;13.38;;
27921;SDS011;15261;50.356;10.340;2022-10-30T17:53:52;24.17;;;12.75;;
27921;SDS011;15261;50.356;10.340;2022-10-30T17:59:39;17.33;;;10.73;;
27921;SDS011;15261;50.356;10.340;2022-10-30T18:02:16;17.65;;;9.85;;
27921;SDS011;15261;50.356;10.340;2022-10-30T18:04:43;22.63;;;10.13;;
27921;SDS011;15261;50.356;10.340;2022-10-30T18:07:10;21.70;;;10.00;;
27921;SDS011;15261;50.356;10.340;2022-10-30T18:09:36;17.73;;;9.75;;
27921;SDS011;15261;50.356;10.340;2022-10-30T18:12:08;17.73;;;10.85;;
27921;SDS011;15261;50.356;10.340;2022-10-30T18:14:37;18.40;;;9.88;;
27921;SDS011;15261;50.356;10.340;2022-10-30T18:17:02;16.42;;;10.52;;
27921;SDS011;15261;50.356;10.340;2022-10-30T18:19:28;21.38;;;10.13;;
27921;SDS011;15261;50.356;10.340;2022-10-30T18:25:20;15.85;;;8.38;;
27921;SDS011;15261;50.356;10.340;2022-10-30T18:27:58;20.23;;;9.68;;
27921;SDS011;15261;50.356;10.340;2022-10-30T18:30:23;19.23;;;9.30;;
27921;SDS011;15261;50.356;10.340;2022-10-30T18:32:49;15.18;;;8.65;;
27921;SDS011;15261;50.356;10.340;2022-10-30T18:38:01;24.58;;;12.90;;
27921;SDS011;15261;50.356;10.340;2022-10-30T18:40:27;22.80;;;13.68;;
27921;SDS011;15261;50.356;10.340;2022-10-30T18:42:53;20.92;;;13.10;;
27921;SDS011;15261;50.356;10.340;2022-10-30T18:45:24;22.88;;;14.60;;
27921;SDS011;15261;50.356;10.340;2022-10-30T18:47:50;26.70;;;18.38;;
27921;SDS011;15261;50.356;10.340;2022-10-30T18:50:17;21.60;;;14.93;;
27921;SDS011;15261;50.356;10.340;2022-10-30T18:52:44;18.35;;;13.93;;
27921;SDS011;15261;50.356;10.340;2022-10-30T18:55:52;15.35;;;12.25;;
27921;SDS011;15261;50.356;10.340;2022-10-30T18:57:59;19.08;;;10.70;;
27921;SDS011;15261;50.356;10.340;2022-10-30T19:00:25;17.25;;;9.48;;
27921;SDS011;15261;50.356;10.340;2022-10-30T19:02:56;13.18;;;9.05;;
27921;SDS011;15261;50.356;10.340;2022-10-30T19:08:00;11.90;;;8.98;;
27921;SDS011;15261;50.356;10.340;2022-10-30T19:10:27;19.20;;;9.82;;
27921;SDS011;15261;50.356;10.340;2022-10-30T19:12:55;18.17;;;10.82;;
27921;SDS011;15261;50.356;10.340;2022-10-30T19:15:24;17.38;;;11.95;;
27921;SDS011;15261;50.356;10.340;2022-10-30T19:17:51;19.80;;;12.82;;
27921;SDS011;15261;50.356;10.340;2022-10-30T19:20:17;18.88;;;12.88;;
27921;SDS011;15261;50.356;10.340;2022-10-30T19:22:42;17.98;;;12.27;;
27921;SDS011;15261;50.356;10.340;2022-10-30T19:27:42;23.98;;;13.25;;
27921;SDS011;15261;50.356;10.340;2022-10-30T19:33:33;22.05;;;13.25;;
27921;SDS011;15261;50.356;10.340;2022-10-30T19:35:59;28.65;;;16.17;;
27921;SDS011;15261;50.356;10.340;2022-10-30T19:38:28;24.50;;;14.63;;
27921;SDS011;15261;50.356;10.340;2022-10-30T19:40:58;19.83;;;12.80;;
27921;SDS011;15261;50.356;10.340;2022-10-30T19:43:26;20.23;;;11.52;;
27921;SDS011;15261;50.356;10.340;2022-10-30T19:45:56;15.88;;;11.10;;
27921;SDS011;15261;50.356;10.340;2022-10-30T19:48:22;18.95;;;10.82;;
27921;SDS011;15261;50.356;10.340;2022-10-30T19:56:35;13.02;;;10.10;;
27921;SDS011;15261;50.356;10.340;2022-10-30T20:02:37;13.48;;;10.43;;